sensor_id;sensor_type;location;lat;lon;timestamp;temperature;humidity
57829;DHT22;43657;52.698;6.314;2023-04-15T00:01:22;6.50;99.90
57829;DHT22;43657;52.698;6.314;2023-04-15T00:03:50;6.50;99.90
57829;DHT22;43657;52.698;6.314;2023-04-15T00:06:22;6.50;99.90
57829;DHT22;43657;52.698;6.314;2023-04-15T00:08:48;6.50;99.90
57829;DHT22;43657;52.698;6.314;2023-04-15T00:11:15;6.50;99.90
57829;DHT22;43657;52.698;6.314;2023-04-15T00:13:41;6.50;99.90
57829;DHT22;43657;52.698;6.314;2023-04-15T00:16:08;6.50;99.90
57829;DHT22;43657;52.698;6.314;2023-04-15T00:18:34;6.50;99.90
57829;DHT22;43657;52.698;6.314;2023-04-15T00:21:01;6.50;99.90
57829;DHT22;43657;52.698;6.314;2023-04-15T00:23:27;6.50;99.90
57829;DHT22;43657;52.698;6.314;2023-04-15T00:25:53;6.40;99.90
57829;DHT22;43657;52.698;6.314;2023-04-15T00:28:19;6.20;99.90
57829;DHT22;43657;52.698;6.314;2023-04-15T00:30:45;6.20;99.90
57829;DHT22;43657;52.698;6.314;2023-04-15T00:33:12;6.10;99.90
57829;DHT22;43657;52.698;6.314;2023-04-15T00:35:38;6.00;99.90
57829;DHT22;43657;52.698;6.314;2023-04-15T00:38:05;5.90;99.90
57829;DHT22;43657;52.698;6.314;2023-04-15T00:40:32;5.80;99.90
57829;DHT22;43657;52.698;6.314;2023-04-15T00:42:58;5.60;99.90
57829;DHT22;43657;52.698;6.314;2023-04-15T00:45:25;5.50;99.90
57829;DHT22;43657;52.698;6.314;2023-04-15T00:47:50;5.40;99.90
57829;DHT22;43657;52.698;6.314;2023-04-15T00:50:16;5.40;99.90
57829;DHT22;43657;52.698;6.314;2023-04-15T00:52:42;5.30;99.90
57829;DHT22;43657;52.698;6.314;2023-04-15T00:55:08;5.30;99.90
57829;DHT22;43657;52.698;6.314;2023-04-15T00:57:36;5.20;99.90
57829;DHT22;43657;52.698;6.314;2023-04-15T01:00:03;5.20;99.90
57829;DHT22;43657;52.698;6.314;2023-04-15T01:02:37;5.00;99.90
57829;DHT22;43657;52.698;6.314;2023-04-15T01:05:04;5.10;99.90
57829;DHT22;43657;52.698;6.314;2023-04-15T01:07:30;5.20;99.90
57829;DHT22;43657;52.698;6.314;2023-04-15T01:09:56;5.20;99.90
57829;DHT22;43657;52.698;6.314;2023-04-15T01:12:23;5.30;99.90
57829;DHT22;43657;52.698;6.314;2023-04-15T01:14:49;5.30;99.90
57829;DHT22;43657;52.698;6.314;2023-04-15T01:17:15;5.30;99.90
57829;DHT22;43657;52.698;6.314;2023-04-15T01:19:40;5.30;99.90
57829;DHT22;43657;52.698;6.314;2023-04-15T01:22:06;5.30;99.90
57829;DHT22;43657;52.698;6.314;2023-04-15T01:24:32;5.30;99.90
57829;DHT22;43657;52.698;6.314;2023-04-15T01:26:58;5.30;99.90
57829;DHT22;43657;52.698;6.314;2023-04-15T01:29:24;5.30;99.90
57829;DHT22;43657;52.698;6.314;2023-04-15T01:31:54;5.30;99.90
57829;DHT22;43657;52.698;6.314;2023-04-15T01:34:20;5.30;99.90
57829;DHT22;43657;52.698;6.314;2023-04-15T01:36:46;5.20;99.90
57829;DHT22;43657;52.698;6.314;2023-04-15T01:39:12;5.20;99.90
57829;DHT22;43657;52.698;6.314;2023-04-15T01:41:38;5.20;99.90
57829;DHT22;43657;52.698;6.314;2023-04-15T01:44:05;5.20;99.90
57829;DHT22;43657;52.698;6.314;2023-04-15T01:46:31;5.20;99.90
57829;DHT22;43657;52.698;6.314;2023-04-15T01:48:57;5.10;99.90
57829;DHT22;43657;52.698;6.314;2023-04-15T01:51:23;5.10;99.90
57829;DHT22;43657;52.698;6.314;2023-04-15T01:53:48;5.10;99.90
57829;DHT22;43657;52.698;6.314;2023-04-15T01:56:14;5.00;99.90
57829;DHT22;43657;52.698;6.314;2023-04-15T01:58:40;5.00;99.90
57829;DHT22;43657;52.698;6.314;2023-04-15T02:01:06;5.00;99.90
57829;DHT22;43657;52.698;6.314;2023-04-15T02:03:31;4.90;99.90
57829;DHT22;43657;52.698;6.314;2023-04-15T02:05:57;4.90;99.90
57829;DHT22;43657;52.698;6.314;2023-04-15T02:08:23;4.90;99.90
57829;DHT22;43657;52.698;6.314;2023-04-15T02:10:49;4.90;99.90
57829;DHT22;43657;52.698;6.314;2023-04-15T02:13:15;4.90;99.90
57829;DHT22;43657;52.698;6.314;2023-04-15T02:15:46;4.90;99.90
57829;DHT22;43657;52.698;6.314;2023-04-15T02:18:12;4.90;99.90
57829;DHT22;43657;52.698;6.314;2023-04-15T02:20:37;4.90;99.90
57829;DHT22;43657;52.698;6.314;2023-04-15T02:23:04;4.90;99.90
57829;DHT22;43657;52.698;6.314;2023-04-15T02:25:31;4.90;99.90
57829;DHT22;43657;52.698;6.314;2023-04-15T02:27:57;4.90;99.90
57829;DHT22;43657;52.698;6.314;2023-04-15T02:30:22;4.90;99.90
57829;DHT22;43657;52.698;6.314;2023-04-15T02:32:49;4.90;99.90
57829;DHT22;43657;52.698;6.314;2023-04-15T02:35:15;4.90;99.90
57829;DHT22;43657;52.698;6.314;2023-04-15T02:37:43;4.90;99.90
57829;DHT22;43657;52.698;6.314;2023-04-15T02:40:10;4.80;99.90
57829;DHT22;43657;52.698;6.314;2023-04-15T02:42:37;4.80;99.90
57829;DHT22;43657;52.698;6.314;2023-04-15T02:45:04;4.80;99.90
57829;DHT22;43657;52.698;6.314;2023-04-15T02:47:30;4.80;99.90
57829;DHT22;43657;52.698;6.314;2023-04-15T02:49:55;4.80;99.90
57829;DHT22;43657;52.698;6.314;2023-04-15T02:52:23;4.70;99.90
57829;DHT22;43657;52.698;6.314;2023-04-15T02:54:49;4.70;99.90
57829;DHT22;43657;52.698;6.314;2023-04-15T02:57:14;4.80;99.90
57829;DHT22;43657;52.698;6.314;2023-04-15T02:59:40;4.70;99.90
57829;DHT22;43657;52.698;6.314;2023-04-15T03:02:06;4.70;99.90
57829;DHT22;43657;52.698;6.314;2023-04-15T03:04:32;4.70;99.90
57829;DHT22;43657;52.698;6.314;2023-04-15T03:06:59;4.70;99.90
57829;DHT22;43657;52.698;6.314;2023-04-15T03:09:25;4.70;99.90
57829;DHT22;43657;52.698;6.314;2023-04-15T03:11:51;4.60;99.90
57829;DHT22;43657;52.698;6.314;2023-04-15T03:14:17;4.60;99.90
57829;DHT22;43657;52.698;6.314;2023-04-15T03:16:43;4.60;99.90
57829;DHT22;43657;52.698;6.314;2023-04-15T03:19:09;4.60;99.90
57829;DHT22;43657;52.698;6.314;2023-04-15T03:21:35;4.50;99.90
57829;DHT22;43657;52.698;6.314;2023-04-15T03:24:00;4.50;99.90
57829;DHT22;43657;52.698;6.314;2023-04-15T03:26:27;4.40;99.90
57829;DHT22;43657;52.698;6.314;2023-04-15T03:28:54;4.40;99.90
57829;DHT22;43657;52.698;6.314;2023-04-15T03:31:22;4.40;99.90
57829;DHT22;43657;52.698;6.314;2023-04-15T03:33:48;4.30;99.90
57829;DHT22;43657;52.698;6.314;2023-04-15T03:36:13;4.30;99.90
57829;DHT22;43657;52.698;6.314;2023-04-15T03:38:39;4.30;99.90
57829;DHT22;43657;52.698;6.314;2023-04-15T03:41:05;4.20;99.90
57829;DHT22;43657;52.698;6.314;2023-04-15T03:43:30;4.10;99.90
57829;DHT22;43657;52.698;6.314;2023-04-15T03:45:56;4.10;99.90
57829;DHT22;43657;52.698;6.314;2023-04-15T03:48:22;3.90;99.90
57829;DHT22;43657;52.698;6.314;2023-04-15T03:50:47;3.80;99.90
57829;DHT22;43657;52.698;6.314;2023-04-15T03:53:14;3.70;99.90
57829;DHT22;43657;52.698;6.314;2023-04-15T03:55:39;3.70;99.90
57829;DHT22;43657;52.698;6.314;2023-04-15T03:58:05;3.60;99.90
57829;DHT22;43657;52.698;6.314;2023-04-15T04:00:31;3.60;99.90
57829;DHT22;43657;52.698;6.314;2023-04-15T04:02:56;3.50;99.90
57829;DHT22;43657;52.698;6.314;2023-04-15T04:05:22;3.50;99.90
57829;DHT22;43657;52.698;6.314;2023-04-15T04:07:48;3.40;99.90
57829;DHT22;43657;52.698;6.314;2023-04-15T04:10:16;3.30;99.90
57829;DHT22;43657;52.698;6.314;2023-04-15T04:12:42;3.20;99.90
57829;DHT22;43657;52.698;6.314;2023-04-15T04:15:07;3.10;99.90
57829;DHT22;43657;52.698;6.314;2023-04-15T04:17:33;3.00;99.90
57829;DHT22;43657;52.698;6.314;2023-04-15T04:19:59;2.90;99.90
57829;DHT22;43657;52.698;6.314;2023-04-15T04:22:24;2.90;99.90
57829;DHT22;43657;52.698;6.314;2023-04-15T04:24:50;2.90;99.90
57829;DHT22;43657;52.698;6.314;2023-04-15T04:27:16;2.90;99.90
57829;DHT22;43657;52.698;6.314;2023-04-15T04:29:42;3.00;99.90
57829;DHT22;43657;52.698;6.314;2023-04-15T04:32:07;3.00;99.90
57829;DHT22;43657;52.698;6.314;2023-04-15T04:34:33;3.10;99.90
57829;DHT22;43657;52.698;6.314;2023-04-15T04:36:58;3.20;99.90
57829;DHT22;43657;52.698;6.314;2023-04-15T04:39:24;3.30;99.90
57829;DHT22;43657;52.698;6.314;2023-04-15T04:41:50;3.40;99.90
57829;DHT22;43657;52.698;6.314;2023-04-15T04:44:17;3.40;99.90
57829;DHT22;43657;52.698;6.314;2023-04-15T04:46:42;3.50;99.90
57829;DHT22;43657;52.698;6.314;2023-04-15T04:49:08;3.50;99.90
57829;DHT22;43657;52.698;6.314;2023-04-15T04:51:34;3.50;99.90
57829;DHT22;43657;52.698;6.314;2023-04-15T04:53:59;3.50;99.90
57829;DHT22;43657;52.698;6.314;2023-04-15T04:56:25;3.50;99.90
57829;DHT22;43657;52.698;6.314;2023-04-15T04:58:51;3.50;99.90
57829;DHT22;43657;52.698;6.314;2023-04-15T05:01:17;3.40;99.90
57829;DHT22;43657;52.698;6.314;2023-04-15T05:03:43;3.30;99.90
57829;DHT22;43657;52.698;6.314;2023-04-15T05:06:08;3.30;99.90
57829;DHT22;43657;52.698;6.314;2023-04-15T05:08:35;3.20;99.90
57829;DHT22;43657;52.698;6.314;2023-04-15T05:11:01;3.10;99.90
57829;DHT22;43657;52.698;6.314;2023-04-15T05:13:27;3.10;99.90
57829;DHT22;43657;52.698;6.314;2023-04-15T05:15:54;3.10;99.90
57829;DHT22;43657;52.698;6.314;2023-04-15T05:18:20;3.10;99.90
57829;DHT22;43657;52.698;6.314;2023-04-15T05:20:46;3.10;99.90
57829;DHT22;43657;52.698;6.314;2023-04-15T05:23:11;3.10;99.90
57829;DHT22;43657;52.698;6.314;2023-04-15T05:25:37;3.10;99.90
57829;DHT22;43657;52.698;6.314;2023-04-15T05:28:03;3.20;99.90
57829;DHT22;43657;52.698;6.314;2023-04-15T05:30:29;3.20;99.90
57829;DHT22;43657;52.698;6.314;2023-04-15T05:32:55;3.20;99.90
57829;DHT22;43657;52.698;6.314;2023-04-15T05:35:20;3.30;99.90
57829;DHT22;43657;52.698;6.314;2023-04-15T05:37:46;3.30;99.90
57829;DHT22;43657;52.698;6.314;2023-04-15T05:40:12;3.40;99.90
57829;DHT22;43657;52.698;6.314;2023-04-15T05:42:37;3.60;99.90
57829;DHT22;43657;52.698;6.314;2023-04-15T05:45:04;3.60;99.90
57829;DHT22;43657;52.698;6.314;2023-04-15T05:47:36;3.70;99.90
57829;DHT22;43657;52.698;6.314;2023-04-15T05:50:02;3.90;99.90
57829;DHT22;43657;52.698;6.314;2023-04-15T05:52:29;4.00;99.90
57829;DHT22;43657;52.698;6.314;2023-04-15T05:54:55;4.10;99.90
57829;DHT22;43657;52.698;6.314;2023-04-15T05:57:21;4.10;99.90
57829;DHT22;43657;52.698;6.314;2023-04-15T05:59:47;4.20;99.90
57829;DHT22;43657;52.698;6.314;2023-04-15T06:02:13;4.20;99.90
57829;DHT22;43657;52.698;6.314;2023-04-15T06:04:39;4.30;99.90
57829;DHT22;43657;52.698;6.314;2023-04-15T06:07:05;4.30;99.90
57829;DHT22;43657;52.698;6.314;2023-04-15T06:09:31;4.30;99.90
57829;DHT22;43657;52.698;6.314;2023-04-15T06:11:57;4.30;99.90
57829;DHT22;43657;52.698;6.314;2023-04-15T06:14:23;4.40;99.90
57829;DHT22;43657;52.698;6.314;2023-04-15T06:16:49;4.50;99.90
57829;DHT22;43657;52.698;6.314;2023-04-15T06:19:14;4.60;99.90
57829;DHT22;43657;52.698;6.314;2023-04-15T06:21:40;4.60;99.90
57829;DHT22;43657;52.698;6.314;2023-04-15T06:24:06;4.70;99.90
57829;DHT22;43657;52.698;6.314;2023-04-15T06:26:33;4.70;99.90
57829;DHT22;43657;52.698;6.314;2023-04-15T06:28:58;4.80;99.90
57829;DHT22;43657;52.698;6.314;2023-04-15T06:31:24;4.90;99.90
57829;DHT22;43657;52.698;6.314;2023-04-15T06:33:49;5.00;99.90
57829;DHT22;43657;52.698;6.314;2023-04-15T06:36:15;5.10;99.90
57829;DHT22;43657;52.698;6.314;2023-04-15T06:38:41;5.10;99.90
57829;DHT22;43657;52.698;6.314;2023-04-15T06:41:07;5.30;99.90
57829;DHT22;43657;52.698;6.314;2023-04-15T06:43:32;5.40;99.90
57829;DHT22;43657;52.698;6.314;2023-04-15T06:45:58;5.50;99.90
57829;DHT22;43657;52.698;6.314;2023-04-15T06:48:26;5.60;99.90
57829;DHT22;43657;52.698;6.314;2023-04-15T06:50:52;5.80;99.90
57829;DHT22;43657;52.698;6.314;2023-04-15T06:53:18;5.90;99.90
57829;DHT22;43657;52.698;6.314;2023-04-15T06:55:44;6.00;99.90
57829;DHT22;43657;52.698;6.314;2023-04-15T06:58:10;6.20;99.90
57829;DHT22;43657;52.698;6.314;2023-04-15T07:00:36;6.40;99.90
57829;DHT22;43657;52.698;6.314;2023-04-15T07:03:03;6.60;99.90
57829;DHT22;43657;52.698;6.314;2023-04-15T07:05:29;6.80;99.90
57829;DHT22;43657;52.698;6.314;2023-04-15T07:07:57;6.90;99.90
57829;DHT22;43657;52.698;6.314;2023-04-15T07:10:23;7.10;99.90
57829;DHT22;43657;52.698;6.314;2023-04-15T07:12:49;7.30;99.90
57829;DHT22;43657;52.698;6.314;2023-04-15T07:15:16;7.50;99.90
57829;DHT22;43657;52.698;6.314;2023-04-15T07:17:41;7.60;99.90
57829;DHT22;43657;52.698;6.314;2023-04-15T07:20:10;7.70;99.90
57829;DHT22;43657;52.698;6.314;2023-04-15T07:22:38;7.90;99.90
57829;DHT22;43657;52.698;6.314;2023-04-15T07:25:04;8.10;99.90
57829;DHT22;43657;52.698;6.314;2023-04-15T07:27:32;8.30;99.90
57829;DHT22;43657;52.698;6.314;2023-04-15T07:29:58;8.50;99.90
57829;DHT22;43657;52.698;6.314;2023-04-15T07:32:23;8.50;99.90
57829;DHT22;43657;52.698;6.314;2023-04-15T07:34:49;8.70;99.90
57829;DHT22;43657;52.698;6.314;2023-04-15T07:37:14;8.90;99.90
57829;DHT22;43657;52.698;6.314;2023-04-15T07:39:40;9.10;99.90
57829;DHT22;43657;52.698;6.314;2023-04-15T07:42:06;9.20;99.90
57829;DHT22;43657;52.698;6.314;2023-04-15T07:44:31;9.20;99.90
57829;DHT22;43657;52.698;6.314;2023-04-15T07:46:57;9.30;99.90
57829;DHT22;43657;52.698;6.314;2023-04-15T07:49:23;9.30;99.90
57829;DHT22;43657;52.698;6.314;2023-04-15T07:51:48;9.40;99.90
57829;DHT22;43657;52.698;6.314;2023-04-15T07:54:15;9.40;99.90
57829;DHT22;43657;52.698;6.314;2023-04-15T07:56:40;9.50;99.90
57829;DHT22;43657;52.698;6.314;2023-04-15T07:59:09;9.60;99.90
57829;DHT22;43657;52.698;6.314;2023-04-15T08:01:35;9.60;99.90
57829;DHT22;43657;52.698;6.314;2023-04-15T08:04:01;9.60;99.90
57829;DHT22;43657;52.698;6.314;2023-04-15T08:06:26;9.70;99.90
57829;DHT22;43657;52.698;6.314;2023-04-15T08:08:52;9.80;99.90
57829;DHT22;43657;52.698;6.314;2023-04-15T08:11:19;9.90;99.90
57829;DHT22;43657;52.698;6.314;2023-04-15T08:13:46;10.10;99.90
57829;DHT22;43657;52.698;6.314;2023-04-15T08:16:23;10.10;99.90
57829;DHT22;43657;52.698;6.314;2023-04-15T08:18:50;10.20;99.90
57829;DHT22;43657;52.698;6.314;2023-04-15T08:21:18;10.30;99.90
57829;DHT22;43657;52.698;6.314;2023-04-15T08:23:49;10.40;99.90
57829;DHT22;43657;52.698;6.314;2023-04-15T08:26:17;10.50;99.90
57829;DHT22;43657;52.698;6.314;2023-04-15T08:28:44;10.50;99.90
57829;DHT22;43657;52.698;6.314;2023-04-15T08:31:10;10.50;99.90
57829;DHT22;43657;52.698;6.314;2023-04-15T08:33:36;10.70;99.90
57829;DHT22;43657;52.698;6.314;2023-04-15T08:36:01;10.90;99.90
57829;DHT22;43657;52.698;6.314;2023-04-15T08:38:27;11.00;99.90
57829;DHT22;43657;52.698;6.314;2023-04-15T08:40:55;11.10;99.90
57829;DHT22;43657;52.698;6.314;2023-04-15T08:43:35;11.00;99.90
57829;DHT22;43657;52.698;6.314;2023-04-15T08:46:03;11.00;99.90
57829;DHT22;43657;52.698;6.314;2023-04-15T08:48:32;11.20;99.90
57829;DHT22;43657;52.698;6.314;2023-04-15T08:50:57;11.50;99.90
57829;DHT22;43657;52.698;6.314;2023-04-15T08:53:32;11.40;99.90
57829;DHT22;43657;52.698;6.314;2023-04-15T08:55:59;11.30;99.90
57829;DHT22;43657;52.698;6.314;2023-04-15T08:58:31;11.30;99.90
57829;DHT22;43657;52.698;6.314;2023-04-15T09:00:57;11.20;99.90
57829;DHT22;43657;52.698;6.314;2023-04-15T09:03:23;11.00;99.90
57829;DHT22;43657;52.698;6.314;2023-04-15T09:05:49;11.00;99.90
57829;DHT22;43657;52.698;6.314;2023-04-15T09:08:15;10.90;99.90
57829;DHT22;43657;52.698;6.314;2023-04-15T09:10:41;10.80;99.90
57829;DHT22;43657;52.698;6.314;2023-04-15T09:13:09;10.70;99.90
57829;DHT22;43657;52.698;6.314;2023-04-15T09:15:38;10.70;99.90
57829;DHT22;43657;52.698;6.314;2023-04-15T09:18:04;10.60;99.90
57829;DHT22;43657;52.698;6.314;2023-04-15T09:20:40;10.80;99.90
57829;DHT22;43657;52.698;6.314;2023-04-15T09:23:13;11.00;99.90
57829;DHT22;43657;52.698;6.314;2023-04-15T09:25:43;11.10;99.90
57829;DHT22;43657;52.698;6.314;2023-04-15T09:28:09;11.20;99.90
57829;DHT22;43657;52.698;6.314;2023-04-15T09:30:36;11.10;99.90
57829;DHT22;43657;52.698;6.314;2023-04-15T09:33:03;11.10;99.90
57829;DHT22;43657;52.698;6.314;2023-04-15T09:35:35;11.00;99.90
57829;DHT22;43657;52.698;6.314;2023-04-15T09:38:05;10.90;99.90
57829;DHT22;43657;52.698;6.314;2023-04-15T09:43:01;10.90;99.90
57829;DHT22;43657;52.698;6.314;2023-04-15T09:45:31;10.90;99.90
57829;DHT22;43657;52.698;6.314;2023-04-15T09:48:24;10.90;99.90
57829;DHT22;43657;52.698;6.314;2023-04-15T09:51:00;10.90;99.90
57829;DHT22;43657;52.698;6.314;2023-04-15T09:53:26;10.90;99.90
57829;DHT22;43657;52.698;6.314;2023-04-15T09:55:54;10.90;99.90
57829;DHT22;43657;52.698;6.314;2023-04-15T09:58:25;10.80;99.90
57829;DHT22;43657;52.698;6.314;2023-04-15T10:00:56;10.80;99.90
57829;DHT22;43657;52.698;6.314;2023-04-15T10:03:29;10.80;99.90
57829;DHT22;43657;52.698;6.314;2023-04-15T10:05:58;10.70;99.90
57829;DHT22;43657;52.698;6.314;2023-04-15T10:08:28;10.80;99.90
57829;DHT22;43657;52.698;6.314;2023-04-15T10:10:54;10.70;99.90
57829;DHT22;43657;52.698;6.314;2023-04-15T10:13:25;10.70;99.90
57829;DHT22;43657;52.698;6.314;2023-04-15T10:15:55;10.70;99.90
57829;DHT22;43657;52.698;6.314;2023-04-15T10:18:24;10.70;99.90
57829;DHT22;43657;52.698;6.314;2023-04-15T10:20:50;10.70;99.90
57829;DHT22;43657;52.698;6.314;2023-04-15T10:23:17;10.60;99.90
57829;DHT22;43657;52.698;6.314;2023-04-15T10:25:44;10.60;99.90
57829;DHT22;43657;52.698;6.314;2023-04-15T10:28:10;10.50;99.90
57829;DHT22;43657;52.698;6.314;2023-04-15T10:30:37;10.40;99.90
57829;DHT22;43657;52.698;6.314;2023-04-15T10:33:04;10.40;99.90
57829;DHT22;43657;52.698;6.314;2023-04-15T10:35:31;10.50;99.90
57829;DHT22;43657;52.698;6.314;2023-04-15T10:37:58;10.50;99.90
57829;DHT22;43657;52.698;6.314;2023-04-15T10:40:28;10.60;99.90
57829;DHT22;43657;52.698;6.314;2023-04-15T10:42:56;10.60;99.90
57829;DHT22;43657;52.698;6.314;2023-04-15T10:45:25;10.60;99.90
57829;DHT22;43657;52.698;6.314;2023-04-15T10:47:55;10.70;99.90
57829;DHT22;43657;52.698;6.314;2023-04-15T10:50:27;10.70;99.90
57829;DHT22;43657;52.698;6.314;2023-04-15T10:52:55;10.90;99.90
57829;DHT22;43657;52.698;6.314;2023-04-15T10:55:22;11.30;99.90
57829;DHT22;43657;52.698;6.314;2023-04-15T10:57:53;11.70;99.90
57829;DHT22;43657;52.698;6.314;2023-04-15T11:00:20;11.70;99.90
57829;DHT22;43657;52.698;6.314;2023-04-15T11:05:50;11.60;99.90
57829;DHT22;43657;52.698;6.314;2023-04-15T11:08:21;11.50;99.90
57829;DHT22;43657;52.698;6.314;2023-04-15T11:11:05;11.30;99.90
57829;DHT22;43657;52.698;6.314;2023-04-15T11:13:31;11.10;99.90
57829;DHT22;43657;52.698;6.314;2023-04-15T11:15:58;11.10;99.90
57829;DHT22;43657;52.698;6.314;2023-04-15T11:18:27;11.20;99.90
57829;DHT22;43657;52.698;6.314;2023-04-15T11:20:58;11.20;99.90
57829;DHT22;43657;52.698;6.314;2023-04-15T11:23:36;11.30;99.90
57829;DHT22;43657;52.698;6.314;2023-04-15T11:26:03;11.40;99.90
57829;DHT22;43657;52.698;6.314;2023-04-15T11:28:34;11.40;99.90
57829;DHT22;43657;52.698;6.314;2023-04-15T11:31:08;11.30;99.90
57829;DHT22;43657;52.698;6.314;2023-04-15T11:33:36;11.20;99.90
57829;DHT22;43657;52.698;6.314;2023-04-15T11:36:02;11.20;99.90
57829;DHT22;43657;52.698;6.314;2023-04-15T11:38:28;11.10;99.90
57829;DHT22;43657;52.698;6.314;2023-04-15T11:40:54;11.10;99.90
57829;DHT22;43657;52.698;6.314;2023-04-15T11:43:21;11.00;99.90
57829;DHT22;43657;52.698;6.314;2023-04-15T11:45:59;10.90;99.90
57829;DHT22;43657;52.698;6.314;2023-04-15T11:48:29;10.90;99.90
57829;DHT22;43657;52.698;6.314;2023-04-15T11:50:58;10.90;99.90
57829;DHT22;43657;52.698;6.314;2023-04-15T11:53:35;10.80;99.90
57829;DHT22;43657;52.698;6.314;2023-04-15T11:56:01;10.80;99.90
57829;DHT22;43657;52.698;6.314;2023-04-15T11:58:28;10.70;99.90
57829;DHT22;43657;52.698;6.314;2023-04-15T12:00:56;10.60;99.90
57829;DHT22;43657;52.698;6.314;2023-04-15T12:03:29;10.50;99.90
57829;DHT22;43657;52.698;6.314;2023-04-15T12:06:22;10.40;99.90
57829;DHT22;43657;52.698;6.314;2023-04-15T12:09:02;10.40;99.90
57829;DHT22;43657;52.698;6.314;2023-04-15T12:11:36;10.40;99.90
57829;DHT22;43657;52.698;6.314;2023-04-15T12:16:27;10.40;99.90
57829;DHT22;43657;52.698;6.314;2023-04-15T12:18:55;10.40;99.90
57829;DHT22;43657;52.698;6.314;2023-04-15T12:21:34;10.40;99.90
57829;DHT22;43657;52.698;6.314;2023-04-15T12:24:02;10.50;99.90
57829;DHT22;43657;52.698;6.314;2023-04-15T12:26:47;10.50;99.90
57829;DHT22;43657;52.698;6.314;2023-04-15T12:29:14;10.50;99.90
57829;DHT22;43657;52.698;6.314;2023-04-15T12:31:51;10.50;99.90
57829;DHT22;43657;52.698;6.314;2023-04-15T12:34:33;10.70;99.90
57829;DHT22;43657;52.698;6.314;2023-04-15T12:37:00;10.80;99.90
57829;DHT22;43657;52.698;6.314;2023-04-15T12:39:28;10.70;99.90
57829;DHT22;43657;52.698;6.314;2023-04-15T12:41:54;10.80;99.90
57829;DHT22;43657;52.698;6.314;2023-04-15T12:44:22;10.70;99.90
57829;DHT22;43657;52.698;6.314;2023-04-15T12:46:49;10.60;99.90
57829;DHT22;43657;52.698;6.314;2023-04-15T12:49:14;10.60;99.90
57829;DHT22;43657;52.698;6.314;2023-04-15T12:51:41;10.50;99.90
57829;DHT22;43657;52.698;6.314;2023-04-15T12:54:07;10.50;99.90
57829;DHT22;43657;52.698;6.314;2023-04-15T12:56:32;10.40;99.90
57829;DHT22;43657;52.698;6.314;2023-04-15T12:58:58;10.30;99.90
57829;DHT22;43657;52.698;6.314;2023-04-15T13:01:24;10.40;99.90
57829;DHT22;43657;52.698;6.314;2023-04-15T13:03:49;10.50;99.90
57829;DHT22;43657;52.698;6.314;2023-04-15T13:06:15;10.70;99.90
57829;DHT22;43657;52.698;6.314;2023-04-15T13:08:41;10.70;99.90
57829;DHT22;43657;52.698;6.314;2023-04-15T13:11:07;10.70;99.90
57829;DHT22;43657;52.698;6.314;2023-04-15T13:13:33;10.60;99.90
57829;DHT22;43657;52.698;6.314;2023-04-15T13:15:58;10.50;99.90
57829;DHT22;43657;52.698;6.314;2023-04-15T13:18:25;10.40;99.90
57829;DHT22;43657;52.698;6.314;2023-04-15T13:20:50;10.50;99.90
57829;DHT22;43657;52.698;6.314;2023-04-15T13:23:16;10.60;99.90
57829;DHT22;43657;52.698;6.314;2023-04-15T13:25:42;10.60;99.90
57829;DHT22;43657;52.698;6.314;2023-04-15T13:28:10;10.50;99.90
57829;DHT22;43657;52.698;6.314;2023-04-15T13:30:37;10.40;99.90
57829;DHT22;43657;52.698;6.314;2023-04-15T13:33:03;10.40;99.90
57829;DHT22;43657;52.698;6.314;2023-04-15T13:35:28;10.30;99.90
57829;DHT22;43657;52.698;6.314;2023-04-15T13:37:54;10.20;99.90
57829;DHT22;43657;52.698;6.314;2023-04-15T13:40:20;10.20;99.90
57829;DHT22;43657;52.698;6.314;2023-04-15T13:42:46;10.20;99.90
57829;DHT22;43657;52.698;6.314;2023-04-15T13:45:12;10.20;99.90
57829;DHT22;43657;52.698;6.314;2023-04-15T13:47:37;10.20;99.90
57829;DHT22;43657;52.698;6.314;2023-04-15T13:50:04;10.10;99.90
57829;DHT22;43657;52.698;6.314;2023-04-15T13:52:29;10.10;99.90
57829;DHT22;43657;52.698;6.314;2023-04-15T13:54:55;10.20;99.90
57829;DHT22;43657;52.698;6.314;2023-04-15T13:57:21;10.20;99.90
57829;DHT22;43657;52.698;6.314;2023-04-15T13:59:46;10.20;99.90
57829;DHT22;43657;52.698;6.314;2023-04-15T14:02:12;10.20;99.90
57829;DHT22;43657;52.698;6.314;2023-04-15T14:04:37;10.20;99.90
57829;DHT22;43657;52.698;6.314;2023-04-15T14:07:03;10.20;99.90
57829;DHT22;43657;52.698;6.314;2023-04-15T14:09:29;10.20;99.90
57829;DHT22;43657;52.698;6.314;2023-04-15T14:11:55;10.10;99.90
57829;DHT22;43657;52.698;6.314;2023-04-15T14:14:20;10.10;99.90
57829;DHT22;43657;52.698;6.314;2023-04-15T14:16:46;10.10;99.90
57829;DHT22;43657;52.698;6.314;2023-04-15T14:19:12;10.00;99.90
57829;DHT22;43657;52.698;6.314;2023-04-15T14:21:38;10.10;99.90
57829;DHT22;43657;52.698;6.314;2023-04-15T14:24:04;10.00;99.90
57829;DHT22;43657;52.698;6.314;2023-04-15T14:26:30;10.00;99.90
57829;DHT22;43657;52.698;6.314;2023-04-15T14:28:58;10.10;99.90
57829;DHT22;43657;52.698;6.314;2023-04-15T14:31:23;10.10;99.90
57829;DHT22;43657;52.698;6.314;2023-04-15T14:33:51;10.10;99.90
57829;DHT22;43657;52.698;6.314;2023-04-15T14:36:17;10.20;99.90
57829;DHT22;43657;52.698;6.314;2023-04-15T14:38:43;10.10;99.90
57829;DHT22;43657;52.698;6.314;2023-04-15T14:41:08;10.00;99.90
57829;DHT22;43657;52.698;6.314;2023-04-15T14:43:35;9.90;99.90
57829;DHT22;43657;52.698;6.314;2023-04-15T14:46:01;9.90;99.90
57829;DHT22;43657;52.698;6.314;2023-04-15T14:48:27;9.80;99.90
57829;DHT22;43657;52.698;6.314;2023-04-15T14:50:52;9.80;99.90
57829;DHT22;43657;52.698;6.314;2023-04-15T14:53:18;9.70;99.90
57829;DHT22;43657;52.698;6.314;2023-04-15T14:55:44;9.60;99.90
57829;DHT22;43657;52.698;6.314;2023-04-15T14:58:10;9.50;99.90
57829;DHT22;43657;52.698;6.314;2023-04-15T15:00:37;9.50;99.90
57829;DHT22;43657;52.698;6.314;2023-04-15T15:03:05;9.50;99.90
57829;DHT22;43657;52.698;6.314;2023-04-15T15:05:44;9.40;99.90
57829;DHT22;43657;52.698;6.314;2023-04-15T15:08:11;9.30;99.90
57829;DHT22;43657;52.698;6.314;2023-04-15T15:10:40;9.20;99.90
57829;DHT22;43657;52.698;6.314;2023-04-15T15:13:07;9.20;99.90
57829;DHT22;43657;52.698;6.314;2023-04-15T15:15:34;9.10;99.90
57829;DHT22;43657;52.698;6.314;2023-04-15T15:18:00;9.00;99.90
57829;DHT22;43657;52.698;6.314;2023-04-15T15:20:26;9.00;99.90
57829;DHT22;43657;52.698;6.314;2023-04-15T15:22:52;8.90;99.90
57829;DHT22;43657;52.698;6.314;2023-04-15T15:25:18;8.80;99.90
57829;DHT22;43657;52.698;6.314;2023-04-15T15:27:43;8.80;99.90
57829;DHT22;43657;52.698;6.314;2023-04-15T15:30:09;8.80;99.90
57829;DHT22;43657;52.698;6.314;2023-04-15T15:32:37;8.70;99.90
57829;DHT22;43657;52.698;6.314;2023-04-15T15:35:02;8.70;99.90
57829;DHT22;43657;52.698;6.314;2023-04-15T15:37:29;8.70;99.90
57829;DHT22;43657;52.698;6.314;2023-04-15T15:39:55;8.70;99.90
57829;DHT22;43657;52.698;6.314;2023-04-15T15:42:21;8.70;99.90
57829;DHT22;43657;52.698;6.314;2023-04-15T15:44:48;8.60;99.90
57829;DHT22;43657;52.698;6.314;2023-04-15T15:47:16;8.60;99.90